createdAt,value
2018-02-18T00:01:45.163Z,32.80
2018-02-18T00:04:12.691Z,35.67
2018-02-18T00:06:40.168Z,33.65
2018-02-18T00:09:08.510Z,31.70
2018-02-18T00:11:36.840Z,35.08
2018-02-18T00:14:04.336Z,27.15
2018-02-18T00:16:31.803Z,23.05
2018-02-18T00:18:59.413Z,27.52
2018-02-18T00:21:27.875Z,26.98
2018-02-18T00:23:56.224Z,32.47
2018-02-18T00:26:24.114Z,28.08
2018-02-18T00:28:52.360Z,33.17
2018-02-18T00:31:19.899Z,22.77
2018-02-18T00:33:47.581Z,27.02
2018-02-18T00:36:15.072Z,21.35
2018-02-18T00:38:42.564Z,23.27
2018-02-18T00:41:12.250Z,20.35
2018-02-18T00:43:39.729Z,26.35
2018-02-18T00:46:18.638Z,30.27
2018-02-18T00:48:46.243Z,22.65
2018-02-18T00:51:13.727Z,21.48
2018-02-18T00:53:42.382Z,32.67
2018-02-18T00:56:10.935Z,23.42
2018-02-18T00:58:38.435Z,31.95
2018-02-18T01:01:06.667Z,31.10
2018-02-18T01:03:34.166Z,24.25
2018-02-18T01:06:02.694Z,27.83
2018-02-18T01:08:30.920Z,29.23
2018-02-18T01:11:05.031Z,21.00
2018-02-18T01:13:33.278Z,34.47
2018-02-18T01:16:01.090Z,27.65
2018-02-18T01:18:28.964Z,26.10
2018-02-18T01:20:56.451Z,22.87
2018-02-18T01:23:23.915Z,19.50
2018-02-18T01:25:51.426Z,19.40
2018-02-18T01:28:19.053Z,27.62
2018-02-18T01:30:47.080Z,25.15
2018-02-18T01:33:14.607Z,27.23
2018-02-18T01:35:42.397Z,22.10
2018-02-18T01:38:09.893Z,33.22
2018-02-18T01:40:37.621Z,23.80
2018-02-18T01:43:05.946Z,38.53
2018-02-18T01:45:34.203Z,27.02
2018-02-18T01:48:01.730Z,36.03
2018-02-18T01:50:37.266Z,20.67
2018-02-18T01:53:04.744Z,39.25
2018-02-18T01:55:32.234Z,31.17
2018-02-18T01:58:00.475Z,33.63
2018-02-18T02:00:28.541Z,38.28
2018-02-18T02:02:56.006Z,25.42
2018-02-18T02:05:23.500Z,35.15
2018-02-18T02:07:51.767Z,31.87
2018-02-18T02:10:19.245Z,37.10
2018-02-18T02:12:47.491Z,26.00
2018-02-18T02:15:15.235Z,35.90
2018-02-18T02:17:42.703Z,25.95
2018-02-18T02:20:10.177Z,34.72
2018-02-18T02:22:38.435Z,33.50
2018-02-18T02:25:06.679Z,33.50
2018-02-18T02:27:34.661Z,25.25
2018-02-18T02:30:02.244Z,31.30
2018-02-18T02:32:29.741Z,32.30
2018-02-18T02:34:58.500Z,25.15
2018-02-18T02:37:26.825Z,33.05
2018-02-18T02:39:55.516Z,24.15
2018-02-18T02:42:23.755Z,26.25
2018-02-18T02:44:51.252Z,30.73
2018-02-18T02:47:18.721Z,26.65
2018-02-18T02:49:46.224Z,30.85
2018-02-18T02:52:13.767Z,30.62
2018-02-18T02:54:41.221Z,25.62
2018-02-18T02:57:10.243Z,32.63
2018-02-18T02:59:38.162Z,37.70
2018-02-18T03:02:05.631Z,29.77
2018-02-18T03:04:34.444Z,30.58
2018-02-18T03:07:02.584Z,28.02
2018-02-18T03:09:30.203Z,31.23
2018-02-18T03:11:57.681Z,22.15
2018-02-18T03:14:25.491Z,30.67
2018-02-18T03:16:53.003Z,32.05
2018-02-18T03:19:20.499Z,29.02
2018-02-18T03:21:47.992Z,30.42
2018-02-18T03:24:15.471Z,24.63
2018-02-18T03:26:42.943Z,25.75
2018-02-18T03:29:10.618Z,19.23
2018-02-18T03:31:38.944Z,25.90
2018-02-18T03:34:06.412Z,27.00
2018-02-18T03:36:33.895Z,23.92
2018-02-18T03:39:02.131Z,35.90
2018-02-18T03:41:29.611Z,24.00
2018-02-18T03:43:58.202Z,33.17
2018-02-18T03:46:25.709Z,28.83
2018-02-18T03:48:53.576Z,29.70
2018-02-18T03:51:21.444Z,34.38
2018-02-18T03:53:48.923Z,27.23
2018-02-18T03:56:16.400Z,29.98
2018-02-18T03:58:43.910Z,30.00
2018-02-18T04:01:12.025Z,35.95
2018-02-18T04:03:39.539Z,31.50
2018-02-18T04:06:07.016Z,23.05
2018-02-18T04:08:35.221Z,26.12
2018-02-18T04:11:03.500Z,39.42
2018-02-18T04:13:31.060Z,29.87
2018-02-18T04:15:58.532Z,22.62
2018-02-18T04:18:26.767Z,25.00
2018-02-18T04:20:54.580Z,26.08
2018-02-18T04:23:22.092Z,38.55
2018-02-18T04:25:49.574Z,28.90
2018-02-18T04:28:17.833Z,29.73
2018-02-18T04:30:45.862Z,22.62
2018-02-18T04:33:13.315Z,31.42
2018-02-18T04:35:40.843Z,28.90
2018-02-18T04:38:08.314Z,37.17
2018-02-18T04:40:36.537Z,22.65
2018-02-18T04:43:04.000Z,34.75
2018-02-18T04:45:31.471Z,35.67
2018-02-18T04:47:59.721Z,35.75
2018-02-18T04:50:27.203Z,38.35
2018-02-18T04:52:55.920Z,37.55
2018-02-18T04:55:23.412Z,29.12
2018-02-18T04:57:50.894Z,25.35
2018-02-18T05:00:18.367Z,39.30
2018-02-18T05:02:46.909Z,43.05
2018-02-18T05:05:14.387Z,45.90
2018-02-18T05:07:41.856Z,30.73
2018-02-18T05:10:10.192Z,37.05
2018-02-18T05:12:37.675Z,37.67
2018-02-18T05:15:05.303Z,32.28
2018-02-18T05:17:32.763Z,35.08
2018-02-18T05:20:03.608Z,33.95
2018-02-18T05:22:31.238Z,33.92
2018-02-18T05:24:58.724Z,43.92
2018-02-18T05:27:26.291Z,44.22
2018-02-18T05:29:53.789Z,32.38
2018-02-18T05:32:21.863Z,45.75
2018-02-18T05:34:49.648Z,28.55
2018-02-18T05:37:26.909Z,36.53
2018-02-18T05:39:54.555Z,36.42
2018-02-18T05:42:22.811Z,41.70
2018-02-18T05:44:50.299Z,40.42
2018-02-18T05:47:18.360Z,45.55
2018-02-18T05:49:46.600Z,41.75
2018-02-18T05:52:14.751Z,43.22
2018-02-18T05:54:42.261Z,42.90
2018-02-18T05:57:10.491Z,45.97
2018-02-18T05:59:37.984Z,39.55
2018-02-18T06:02:06.334Z,46.17
2018-02-18T06:04:33.800Z,42.65
2018-02-18T06:07:01.274Z,42.10
2018-02-18T06:09:29.543Z,46.72
2018-02-18T06:11:57.018Z,57.42
2018-02-18T06:14:25.281Z,37.97
2018-02-18T06:16:53.902Z,43.95
2018-02-18T06:19:21.381Z,40.90
2018-02-18T06:21:49.393Z,44.90
2018-02-18T06:24:17.651Z,41.22
2018-02-18T06:26:45.904Z,46.53
2018-02-18T06:29:13.383Z,42.70
2018-02-18T06:31:40.874Z,37.45
2018-02-18T06:34:09.001Z,52.42
2018-02-18T06:36:36.722Z,43.58
2018-02-18T06:39:04.199Z,37.35
2018-02-18T06:41:32.288Z,46.47
2018-02-18T06:43:59.758Z,46.45
2018-02-18T06:46:27.324Z,40.20
2018-02-18T06:48:55.555Z,34.70
2018-02-18T06:51:23.042Z,35.42
2018-02-18T06:53:50.604Z,39.60
2018-02-18T06:56:18.088Z,37.33
2018-02-18T06:58:46.821Z,52.33
2018-02-18T07:01:14.307Z,49.42
2018-02-18T07:03:41.784Z,56.00
2018-02-18T07:06:10.307Z,74.03
2018-02-18T07:08:37.818Z,43.67
2018-02-18T07:11:06.861Z,46.35
2018-02-18T07:13:35.627Z,44.55
2018-02-18T07:16:03.388Z,42.08
2018-02-18T07:18:31.152Z,38.70
2018-02-18T07:20:58.719Z,51.45
2018-02-18T07:23:26.215Z,49.65
2018-02-18T07:25:54.254Z,39.67
2018-02-18T07:28:22.339Z,46.17
2018-02-18T07:30:49.914Z,45.63
2018-02-18T07:33:17.392Z,58.67
2018-02-18T07:35:45.623Z,112.88
2018-02-18T07:38:13.107Z,47.65
2018-02-18T07:40:40.582Z,91.28
2018-02-18T07:43:08.831Z,64.32
2018-02-18T07:45:36.308Z,40.90
2018-02-18T07:48:04.844Z,55.78
2018-02-18T07:50:33.201Z,40.53
2018-02-18T07:53:00.689Z,56.42
2018-02-18T07:55:28.211Z,51.85
2018-02-18T07:57:55.718Z,42.58
2018-02-18T08:00:23.373Z,39.75
2018-02-18T08:02:50.851Z,48.50
2018-02-18T08:05:19.111Z,47.78
2018-02-18T08:07:48.099Z,40.95
2018-02-18T08:10:15.572Z,40.97
2018-02-18T08:12:43.821Z,57.20
2018-02-18T08:15:11.292Z,44.10
2018-02-18T08:17:38.780Z,48.20
2018-02-18T08:20:06.591Z,46.58
2018-02-18T08:22:34.283Z,45.63
2018-02-18T08:25:02.523Z,50.20
2018-02-18T08:27:30.024Z,90.75
2018-02-18T08:29:58.784Z,52.47
2018-02-18T08:32:26.531Z,48.50
2018-02-18T08:34:54.587Z,73.62
2018-02-18T08:37:22.093Z,54.38
2018-02-18T08:39:50.333Z,35.60
2018-02-18T08:42:17.846Z,44.17
2018-02-18T08:44:46.061Z,64.90
2018-02-18T08:47:13.550Z,51.35
2018-02-18T08:49:42.379Z,48.30
2018-02-18T08:52:09.843Z,43.47
2018-02-18T08:54:37.328Z,46.75
2018-02-18T08:57:04.814Z,60.63
2018-02-18T08:59:33.046Z,44.30
2018-02-18T09:02:00.524Z,52.08
2018-02-18T09:04:27.995Z,44.28
2018-02-18T09:06:56.261Z,43.40
2018-02-18T09:09:23.835Z,50.08
2018-02-18T09:11:52.069Z,54.90
2018-02-18T09:14:19.734Z,41.20
2018-02-18T09:16:47.508Z,46.42
2018-02-18T09:19:15.005Z,45.97
2018-02-18T09:21:42.487Z,55.15
2018-02-18T09:24:09.971Z,54.38
2018-02-18T09:26:37.437Z,40.67
2018-02-18T09:29:04.912Z,36.60
2018-02-18T09:31:33.418Z,54.25
2018-02-18T09:34:01.308Z,43.33
2018-02-18T09:36:28.797Z,51.42
2018-02-18T09:38:56.274Z,44.03
2018-02-18T09:41:25.444Z,46.72
2018-02-18T09:43:52.958Z,46.97
2018-02-18T09:46:20.744Z,44.90
2018-02-18T09:48:48.593Z,49.40
2018-02-18T09:51:16.666Z,45.05
2018-02-18T09:53:44.155Z,38.00
2018-02-18T09:56:11.631Z,40.78
2018-02-18T09:58:39.880Z,50.25
2018-02-18T10:01:07.370Z,39.88
2018-02-18T10:03:35.650Z,45.10
2018-02-18T10:06:03.906Z,34.88
2018-02-18T10:08:31.504Z,36.20
2018-02-18T10:10:59.382Z,34.55
2018-02-18T10:13:27.246Z,41.45
2018-02-18T10:15:54.736Z,52.03
2018-02-18T10:18:22.219Z,40.90
2018-02-18T10:20:50.948Z,47.60
2018-02-18T10:23:18.445Z,44.85
2018-02-18T10:25:45.918Z,29.10
2018-02-18T10:28:14.224Z,44.97
2018-02-18T10:30:41.700Z,34.63
2018-02-18T10:33:09.186Z,39.70
2018-02-18T10:35:36.660Z,45.93
2018-02-18T10:38:05.284Z,41.23
2018-02-18T10:40:33.150Z,37.80
2018-02-18T10:43:01.249Z,33.50
2018-02-18T10:45:28.848Z,49.63
2018-02-18T10:47:57.681Z,42.23
2018-02-18T10:50:25.609Z,39.50
2018-02-18T10:52:54.218Z,47.53
2018-02-18T10:55:21.692Z,36.20
2018-02-18T10:57:49.200Z,39.97
2018-02-18T11:00:17.439Z,30.20
2018-02-18T11:02:44.971Z,37.97
2018-02-18T11:05:14.163Z,41.37
2018-02-18T11:07:42.027Z,33.57
2018-02-18T11:10:09.514Z,33.33
2018-02-18T11:12:37.260Z,27.17
2018-02-18T11:15:05.559Z,33.73
2018-02-18T11:17:33.148Z,25.67
2018-02-18T11:20:01.772Z,34.20
2018-02-18T11:22:29.260Z,27.30
2018-02-18T11:24:57.418Z,34.20
2018-02-18T11:27:25.627Z,30.57
2018-02-18T11:29:54.495Z,37.23
2018-02-18T11:32:21.955Z,33.63
2018-02-18T11:34:49.467Z,24.73
2018-02-18T11:37:16.940Z,27.23
2018-02-18T11:39:44.410Z,30.93
2018-02-18T11:42:11.966Z,27.90
2018-02-18T11:44:41.544Z,23.83
2018-02-18T11:47:09.080Z,33.63
2018-02-18T11:49:37.309Z,26.60
2018-02-18T11:52:04.941Z,34.17
2018-02-18T11:54:32.442Z,35.77
2018-02-18T11:57:01.435Z,29.30
2018-02-18T11:59:30.907Z,34.33
2018-02-18T12:01:58.387Z,36.57
2018-02-18T12:04:26.221Z,29.50
2018-02-18T12:06:53.727Z,29.67
2018-02-18T12:09:21.980Z,29.70
2018-02-18T12:11:49.808Z,23.87
2018-02-18T12:14:17.293Z,22.40
2018-02-18T12:16:45.514Z,35.57
2018-02-18T12:19:13.781Z,37.97
2018-02-18T12:21:42.373Z,22.70
2018-02-18T12:24:09.898Z,28.63
2018-02-18T12:26:37.477Z,24.37
2018-02-18T12:29:06.734Z,22.47
2018-02-18T12:31:34.262Z,20.70
2018-02-18T12:34:01.791Z,20.17
2018-02-18T12:36:30.071Z,30.43
2018-02-18T12:38:59.219Z,20.83
2018-02-18T12:41:26.702Z,19.70
2018-02-18T12:43:54.210Z,24.27
2018-02-18T12:46:21.677Z,35.40
2018-02-18T12:48:50.355Z,23.80
2018-02-18T12:51:17.905Z,21.10
2018-02-18T12:53:45.640Z,23.03
2018-02-18T12:56:14.070Z,19.83
2018-02-18T12:58:41.965Z,17.17
2018-02-18T13:01:11.245Z,19.47
2018-02-18T13:03:38.727Z,16.83
2018-02-18T13:06:06.981Z,22.80
2018-02-18T13:08:34.861Z,20.47
2018-02-18T13:11:02.366Z,42.53
2018-02-18T13:13:29.921Z,29.20
2018-02-18T13:15:57.680Z,22.90
2018-02-18T13:18:26.181Z,25.23
2018-02-18T13:20:54.352Z,22.27
2018-02-18T13:23:22.459Z,20.13
2018-02-18T13:25:49.998Z,21.47
2018-02-18T13:28:18.096Z,19.30
2018-02-18T13:30:46.587Z,17.23
2018-02-18T13:33:14.859Z,17.50
2018-02-18T13:35:43.344Z,18.60
2018-02-18T13:38:11.857Z,18.13
2018-02-18T13:40:39.342Z,18.63
2018-02-18T13:43:07.270Z,19.73
2018-02-18T13:45:34.773Z,16.27
2018-02-18T13:48:02.260Z,17.23
2018-02-18T13:50:30.577Z,15.57
2018-02-18T13:52:58.054Z,16.23
2018-02-18T13:55:26.790Z,19.47
2018-02-18T13:57:54.369Z,41.20
2018-02-18T14:00:24.195Z,25.30
2018-02-18T14:02:53.890Z,17.80
2018-02-18T14:05:22.078Z,21.70
2018-02-18T14:07:51.096Z,18.37
2018-02-18T14:10:18.581Z,31.30
2018-02-18T14:12:46.900Z,44.07
2018-02-18T14:15:14.402Z,20.50
2018-02-18T14:17:42.100Z,23.30
2018-02-18T14:20:09.791Z,33.03
2018-02-18T14:22:38.876Z,32.03
2018-02-18T14:25:06.343Z,30.57
2018-02-18T14:27:34.284Z,38.70
2018-02-18T14:30:02.155Z,28.67
2018-02-18T14:32:29.760Z,32.07
2018-02-18T14:34:58.332Z,31.40
2018-02-18T14:37:25.819Z,26.47
2018-02-18T14:39:56.942Z,33.47
2018-02-18T14:42:36.361Z,29.47
